This is the latest recevied weather packets stored in our database for station/object K9JWM. If no packets are shown the sender has not sent any weather packets the latest 1 day(s).
| Time | Temp. | Humidity | Pressure | Rain* | Wind** | Luminosity | Snow |
|---|---|---|---|---|---|---|---|
| 1836274839 | 16.11° C | 98% | 1016.6 hPa | 0 mm | 0.45 m/s, 80° | - | - |
| 1836273937 | 16.11° C | 98% | 1016.8 hPa | 0 mm | 0.45 m/s, 105° | - | - |
| 1778053630 | 1.67° C | 64% | 1012.8 hPa | 0 mm | 0.89 m/s, 296° | - | - |
| 1778052731 | 1.67° C | 68% | 1012.9 hPa | 0 mm | 0 m/s | - | - |
| 1778051831 | 1.67° C | 66% | 1012.9 hPa | 0 mm | 0.45 m/s, 303° | - | - |
| 1778050931 | 1.67° C | 68% | 1012.8 hPa | 0 mm | 0.89 m/s, 285° | - | - |
| 1778050030 | 1.11° C | 67% | 1012.8 hPa | 0 mm | 0.45 m/s, 328° | - | - |
| 1778049129 | 1.11° C | 68% | 1012.6 hPa | 0 mm | 0.89 m/s, 274° | - | - |
| 1778048229 | 1.11° C | 70% | 1012.7 hPa | 0 mm | 0 m/s | - | - |
| 1778047330 | 1.11° C | 66% | 1012.6 hPa | 0 mm | 0.45 m/s, 298° | - | - |
| 1778046430 | 1.11° C | 67% | 1012.6 hPa | 0 mm | 0.45 m/s, 327° | - | - |
| 1778045530 | 1.67° C | 65% | 1012.4 hPa | 0 mm | 0.45 m/s, 301° | - | - |
| 1778044629 | 2.22° C | 64% | 1012.3 hPa | 0 mm | 0.45 m/s, 292° | - | - |
| 1778043731 | 2.22° C | 64% | 1012.1 hPa | 0 mm | 0.45 m/s, 260° | - | - |
| 1778042830 | 2.22° C | 64% | 1012 hPa | 0 mm | 0.89 m/s, 294° | - | - |
| 1778041930 | 2.78° C | 61% | 1011.9 hPa | 0 mm | 0.89 m/s, 299° | - | - |
| 1778041029 | 2.78° C | 61% | 1011.9 hPa | 0 mm | 0 m/s | - | - |
| 1778040130 | 2.78° C | 61% | 1011.9 hPa | 0 mm | 1.34 m/s, 315° | - | - |
| 1778039230 | 3.33° C | 60% | 1012 hPa | 0 mm | 0.89 m/s, 287° | - | - |
| 1778038329 | 3.33° C | 61% | 1011.9 hPa | 0 mm | 1.34 m/s, 290° | - | - |
| 1778037431 | 3.33° C | 60% | 1011.9 hPa | 0 mm | 0 m/s | - | - |
| 1778036530 | 3.33° C | 63% | 1011.8 hPa | 0 mm | 0.89 m/s, 308° | - | - |
| 1778035629 | 3.33° C | 61% | 1011.8 hPa | 0 mm | 0.45 m/s, 7° | - | - |
| 1778034729 | 3.33° C | 60% | 1011.8 hPa | 0 mm | 0.89 m/s, 288° | - | - |
| 1778033831 | 3.89° C | 61% | 1011.5 hPa | 0 mm | 0 m/s | - | - |
* Rain latest hour (hover to see other rain measurements)
** Current wind speed in m/s (hover to see current wind gust speed)